Time;durP1;ratioP1;P1;durP2;ratioP2;P2;SDS_P1;SDS_P2;PMS_P1;PMS_P2;Temp;Humidity;BMP_temperature;BMP_pressure;BME280_temperature;BME280_humidity;BME280_pressure;Samples;Min_cycle;Max_cycle;Signal;HPM_P1;HPM_P2
2021/06/19 00:00:30;;;;;;;18.98;16.98;;;21.20;78.80;;;;;;5056845;28;20043;-74
2021/06/19 00:02:56;;;;;;;21.80;18.27;;;21.20;79.10;;;;;;5065866;28;20082;-76
2021/06/19 00:05:23;;;;;;;21.60;18.13;;;21.20;78.60;;;;;;5061947;28;20090;-74
2021/06/19 00:07:49;;;;;;;22.83;19.02;;;21.10;79.10;;;;;;5062488;28;20071;-72
2021/06/19 00:10:15;;;;;;;25.20;19.23;;;21.10;78.90;;;;;;5054624;28;20449;-77
2021/06/19 00:12:42;;;;;;;21.67;17.55;;;21.10;78.80;;;;;;5061309;28;20573;-72
2021/06/19 00:15:10;;;;;;;26.55;20.00;;;21.00;78.80;;;;;;5044736;28;20466;-72
2021/06/19 00:17:37;;;;;;;22.42;18.85;;;21.00;78.80;;;;;;5065044;28;20033;-75
2021/06/19 00:20:17;;;;;;;18.52;16.13;;;20.90;78.60;;;;;;5050424;28;20079;-74
2021/06/19 00:22:43;;;;;;;16.13;13.10;;;21.00;78.30;;;;;;5061723;28;20024;-79
2021/06/19 00:25:12;;;;;;;17.40;13.18;;;21.00;77.50;;;;;;5065103;28;20043;-73
2021/06/19 00:27:38;;;;;;;18.02;12.80;;;20.90;77.00;;;;;;5067247;28;20028;-72
2021/06/19 00:30:06;;;;;;;16.08;11.20;;;20.90;77.10;;;;;;5050398;28;20041;-73
2021/06/19 00:32:32;;;;;;;15.07;10.70;;;20.70;77.20;;;;;;5064898;28;20044;-72
2021/06/19 00:34:57;;;;;;;13.90;10.70;;;20.70;77.30;;;;;;5066923;28;20025;-72
2021/06/19 00:37:23;;;;;;;15.20;9.73;;;20.60;77.10;;;;;;5068598;28;20102;-71
2021/06/19 00:39:49;;;;;;;15.65;9.93;;;20.60;77.70;;;;;;5063971;28;20084;-74
2021/06/19 00:42:18;;;;;;;15.63;9.98;;;20.40;77.80;;;;;;5067121;28;20039;-77
2021/06/19 00:44:44;;;;;;;15.18;10.82;;;20.40;77.80;;;;;;5056562;28;20041;-75
2021/06/19 00:47:10;;;;;;;15.70;11.15;;;20.30;77.90;;;;;;5066658;28;20036;-75
2021/06/19 00:49:36;;;;;;;14.98;10.48;;;20.30;78.00;;;;;;5066072;28;20045;-71
2021/06/19 00:52:02;;;;;;;15.00;10.85;;;20.20;78.30;;;;;;5068055;28;20124;-73
2021/06/19 00:54:28;;;;;;;14.15;10.48;;;20.20;78.60;;;;;;5063539;28;20033;-72
2021/06/19 00:56:54;;;;;;;13.52;9.90;;;20.20;78.40;;;;;;5067615;28;20040;-73
2021/06/19 00:59:20;;;;;;;13.48;9.05;;;20.20;78.20;;;;;;5048390;28;20050;-77
2021/06/19 01:01:46;;;;;;;17.65;11.27;;;20.10;77.80;;;;;;5067873;28;20036;-74
2021/06/19 01:04:12;;;;;;;16.63;10.63;;;20.10;77.70;;;;;;5064440;28;20060;-72
2021/06/19 01:06:38;;;;;;;14.07;9.98;;;20.00;78.00;;;;;;5068385;28;20051;-73
2021/06/19 01:09:09;;;;;;;17.00;12.55;;;20.00;78.20;;;;;;5061937;28;20040;-74
2021/06/19 01:11:35;;;;;;;16.77;11.63;;;20.00;77.80;;;;;;5040161;28;20044;-72
2021/06/19 01:14:02;;;;;;;18.30;14.93;;;19.80;78.30;;;;;;5062716;28;20499;-73
2021/06/19 01:16:28;;;;;;;19.08;14.93;;;19.70;78.00;;;;;;5066730;28;20644;-75
2021/06/19 01:18:55;;;;;;;17.83;13.45;;;19.60;78.20;;;;;;5068586;28;20020;-73
2021/06/19 01:21:23;;;;;;;17.92;12.63;;;19.50;78.60;;;;;;5067467;28;20041;-71
2021/06/19 01:23:50;;;;;;;15.25;12.05;;;19.40;79.10;;;;;;5065467;28;20430;-73
2021/06/19 01:26:17;;;;;;;16.65;11.57;;;19.40;79.10;;;;;;5045944;28;20703;-72
2021/06/19 01:28:44;;;;;;;15.48;10.27;;;19.30;79.00;;;;;;5066567;28;20119;-72
2021/06/19 01:31:10;;;;;;;14.05;10.38;;;19.20;78.90;;;;;;5044422;28;20044;-73
2021/06/19 01:33:39;;;;;;;14.70;11.70;;;19.10;79.30;;;;;;5064092;28;20078;-74
2021/06/19 01:36:06;;;;;;;16.13;11.95;;;19.20;79.20;;;;;;5066875;28;20086;-75
2021/06/19 01:38:37;;;;;;;15.25;12.73;;;19.10;79.00;;;;;;5066116;28;20037;-72
2021/06/19 01:41:02;;;;;;;16.33;12.13;;;19.10;79.10;;;;;;5067405;28;20043;-71
2021/06/19 01:43:28;;;;;;;17.42;12.05;;;19.00;79.50;;;;;;5063638;28;20044;-72
2021/06/19 01:45:54;;;;;;;15.00;12.63;;;19.00;79.80;;;;;;5062258;28;20028;-73
2021/06/19 01:48:19;;;;;;;17.52;13.10;;;18.90;79.80;;;;;;5066280;28;20048;-72
2021/06/19 01:50:45;;;;;;;17.23;13.45;;;19.00;80.30;;;;;;5067330;28;20047;-71
2021/06/19 01:53:11;;;;;;;16.83;14.38;;;18.90;80.00;;;;;;5065601;28;20086;-71
2021/06/19 01:55:37;;;;;;;16.55;14.07;;;18.80;79.90;;;;;;5058269;28;20269;-74
2021/06/19 01:58:03;;;;;;;15.48;12.23;;;18.90;79.80;;;;;;5066202;28;20430;-76
2021/06/19 02:00:30;;;;;;;14.00;10.68;;;18.90;79.30;;;;;;5061745;28;20043;-72
2021/06/19 02:02:56;;;;;;;14.70;10.88;;;18.80;79.60;;;;;;5061973;28;20055;-76
2021/06/19 02:05:24;;;;;;;13.60;11.35;;;18.90;79.40;;;;;;5066751;28;20036;-73
2021/06/19 02:07:59;;;;;;;14.43;12.10;;;18.90;79.50;;;;;;5060987;28;20361;-72
2021/06/19 02:10:28;;;;;;;15.27;11.85;;;18.90;79.00;;;;;;5042701;28;20040;-73
2021/06/19 02:12:54;;;;;;;12.77;10.52;;;19.00;78.90;;;;;;5066456;28;20035;-72
2021/06/19 02:15:21;;;;;;;12.98;11.13;;;19.00;78.10;;;;;;5061606;28;20056;-72
2021/06/19 02:17:47;;;;;;;14.05;11.20;;;18.80;77.90;;;;;;5045705;28;20037;-75
2021/06/19 02:20:14;;;;;;;13.32;10.02;;;18.70;78.30;;;;;;5064700;28;20032;-72
2021/06/19 02:22:39;;;;;;;15.00;10.38;;;18.50;78.50;;;;;;5047934;28;20532;-75
2021/06/19 02:25:08;;;;;;;12.95;10.73;;;18.40;79.10;;;;;;5060904;28;20028;-72
2021/06/19 02:27:34;;;;;;;13.23;10.65;;;18.40;78.80;;;;;;5046915;28;20040;-75
2021/06/19 02:30:00;;;;;;;13.80;10.40;;;18.40;79.40;;;;;;5066099;28;20056;-74
2021/06/19 02:32:26;;;;;;;12.82;9.77;;;18.40;79.40;;;;;;5059670;28;20498;-71
2021/06/19 02:34:51;;;;;;;11.95;8.60;;;18.30;79.30;;;;;;5063047;28;20032;-72
2021/06/19 02:37:18;;;;;;;11.82;8.75;;;18.30;79.60;;;;;;5061976;28;20103;-70
2021/06/19 02:39:44;;;;;;;10.95;8.05;;;18.30;79.30;;;;;;5061609;28;20043;-72
2021/06/19 02:42:10;;;;;;;10.70;6.60;;;18.30;79.30;;;;;;5058966;28;20033;-74
2021/06/19 02:44:36;;;;;;;11.07;6.97;;;18.40;79.40;;;;;;5062242;28;20035;-72
2021/06/19 02:47:02;;;;;;;9.30;5.65;;;18.40;79.00;;;;;;5064924;28;20032;-73
2021/06/19 02:49:29;;;;;;;9.25;6.15;;;18.20;78.90;;;;;;5062428;28;20052;-71
2021/06/19 02:51:55;;;;;;;8.60;5.65;;;18.20;78.90;;;;;;5048748;28;21961;-74
2021/06/19 02:54:20;;;;;;;8.48;5.78;;;18.20;79.00;;;;;;5062708;28;20044;-71
2021/06/19 02:56:46;;;;;;;8.48;6.25;;;18.30;78.90;;;;;;5061825;28;20051;-75
2021/06/19 02:59:12;;;;;;;9.68;5.43;;;18.20;79.20;;;;;;5058006;28;20503;-74
2021/06/19 03:01:37;;;;;;;8.27;5.85;;;18.10;79.00;;;;;;5060873;28;20037;-73
2021/06/19 03:04:03;;;;;;;9.40;6.47;;;18.10;79.60;;;;;;5057650;28;20045;-73
2021/06/19 03:06:29;;;;;;;9.35;6.20;;;18.10;79.20;;;;;;5067007;28;20044;-72
2021/06/19 03:08:54;;;;;;;9.68;7.40;;;18.20;79.40;;;;;;5060974;28;20115;-75
2021/06/19 03:11:20;;;;;;;10.63;6.97;;;18.20;79.10;;;;;;5065298;28;20092;-73
2021/06/19 03:13:46;;;;;;;11.20;7.47;;;18.20;79.30;;;;;;5060042;28;20119;-74
2021/06/19 03:16:11;;;;;;;9.68;6.43;;;18.30;79.10;;;;;;5063171;28;20028;-72
2021/06/19 03:18:37;;;;;;;8.73;6.50;;;18.30;79.10;;;;;;5067240;28;20072;-74
2021/06/19 03:21:03;;;;;;;9.90;6.97;;;18.40;79.20;;;;;;5064163;28;20542;-72
2021/06/19 03:23:29;;;;;;;10.00;7.68;;;18.30;79.40;;;;;;5064274;28;20112;-72
2021/06/19 03:25:54;;;;;;;13.18;8.30;;;18.30;79.30;;;;;;5048045;28;20044;-72
2021/06/19 03:28:20;;;;;;;14.73;10.25;;;18.20;79.50;;;;;;5062856;28;20033;-71
2021/06/19 03:30:46;;;;;;;11.35;8.40;;;18.30;79.50;;;;;;5064455;28;20029;-72
2021/06/19 03:33:13;;;;;;;9.27;7.82;;;18.30;79.00;;;;;;5064096;28;20071;-72
2021/06/19 03:35:39;;;;;;;10.55;8.00;;;18.30;79.00;;;;;;5066421;28;20035;-71
2021/06/19 03:38:06;;;;;;;10.20;7.60;;;18.20;79.10;;;;;;5061264;28;20115;-77
2021/06/19 03:40:33;;;;;;;10.50;8.55;;;18.20;79.20;;;;;;5063944;28;20450;-71
2021/06/19 03:42:59;;;;;;;11.23;7.30;;;18.10;79.60;;;;;;5063499;28;20078;-71
2021/06/19 03:45:28;;;;;;;9.77;7.07;;;18.20;79.70;;;;;;5063480;28;20094;-76
2021/06/19 03:47:54;;;;;;;11.68;7.13;;;18.30;79.10;;;;;;5070634;28;20088;-74
2021/06/19 03:50:22;;;;;;;8.35;5.88;;;18.20;79.10;;;;;;5069042;28;20060;-73
2021/06/19 03:52:47;;;;;;;9.68;7.20;;;18.20;78.90;;;;;;5067299;28;20140;-74
2021/06/19 03:55:14;;;;;;;8.43;6.10;;;18.10;78.50;;;;;;5049278;28;20120;-75
2021/06/19 03:57:40;;;;;;;8.93;5.25;;;18.10;78.90;;;;;;5068020;28;20033;-77
2021/06/19 04:00:09;;;;;;;8.00;4.80;;;18.10;78.70;;;;;;5069507;28;20077;-72
2021/06/19 04:02:35;;;;;;;7.72;5.00;;;18.00;78.90;;;;;;5066230;28;20035;-72
2021/06/19 04:05:01;;;;;;;7.15;4.80;;;17.90;79.20;;;;;;5067012;28;20032;-77
2021/06/19 04:07:26;;;;;;;7.00;4.68;;;18.00;79.00;;;;;;5069310;28;20037;-75
2021/06/19 04:09:53;;;;;;;7.30;4.72;;;18.00;78.70;;;;;;5061816;28;20044;-74
2021/06/19 04:12:23;;;;;;;7.38;5.50;;;18.10;78.50;;;;;;5049119;28;20029;-74
2021/06/19 04:14:50;;;;;;;8.77;5.10;;;18.00;78.40;;;;;;5062580;28;20051;-72
2021/06/19 04:17:16;;;;;;;7.88;4.85;;;18.00;78.90;;;;;;5065280;28;20032;-72
2021/06/19 04:19:43;;;;;;;8.32;4.90;;;18.10;78.80;;;;;;5070185;28;20085;-73
2021/06/19 04:22:10;;;;;;;9.45;7.50;;;18.10;78.40;;;;;;5058257;28;20790;-73
2021/06/19 04:24:37;;;;;;;11.88;8.52;;;18.10;78.50;;;;;;5050676;28;20036;-72
2021/06/19 04:27:04;;;;;;;11.82;8.88;;;18.00;79.10;;;;;;5063531;28;20489;-72
2021/06/19 04:29:31;;;;;;;11.27;8.27;;;17.90;78.80;;;;;;5064533;28;20044;-72
2021/06/19 04:32:01;;;;;;;9.65;7.50;;;18.00;79.00;;;;;;5065005;28;20033;-72
2021/06/19 04:34:26;;;;;;;9.80;6.68;;;17.90;78.90;;;;;;5057676;28;20029;-71
2021/06/19 04:36:53;;;;;;;9.10;6.03;;;17.90;78.50;;;;;;5068605;28;20036;-73
2021/06/19 04:39:19;;;;;;;10.15;5.80;;;17.70;79.00;;;;;;5063712;28;20503;-71
2021/06/19 04:41:55;;;;;;;7.80;5.75;;;17.70;79.10;;;;;;5063310;28;20043;-73
2021/06/19 04:44:29;;;;;;;7.88;5.93;;;17.60;79.40;;;;;;5066241;28;20040;-71
2021/06/19 04:46:54;;;;;;;8.35;6.20;;;17.40;79.90;;;;;;5066204;28;20095;-72
2021/06/19 04:49:20;;;;;;;9.13;6.13;;;17.40;80.00;;;;;;5066092;28;20479;-72
2021/06/19 04:51:46;;;;;;;10.48;7.80;;;17.50;80.10;;;;;;5067071;28;20044;-72
2021/06/19 04:54:12;;;;;;;9.90;7.30;;;17.40;80.10;;;;;;5059517;28;20037;-72
2021/06/19 04:56:44;;;;;;;10.80;8.20;;;17.40;80.00;;;;;;5065625;28;20029;-74
2021/06/19 04:59:10;;;;;;;9.07;7.22;;;17.50;79.50;;;;;;5059313;28;20073;-72
2021/06/19 05:01:35;;;;;;;10.50;6.90;;;17.50;79.40;;;;;;5055785;28;20060;-72
2021/06/19 05:04:01;;;;;;;9.65;6.70;;;17.50;80.00;;;;;;5068912;28;20385;-74
2021/06/19 05:06:28;;;;;;;11.27;6.28;;;17.50;79.90;;;;;;5068240;28;20684;-72
2021/06/19 05:08:54;;;;;;;10.63;6.75;;;17.50;79.80;;;;;;5058545;28;20444;-72
2021/06/19 05:11:20;;;;;;;8.88;6.57;;;17.60;79.70;;;;;;5059822;28;20064;-71
2021/06/19 05:13:45;;;;;;;8.75;6.00;;;17.60;79.50;;;;;;5061766;28;20056;-76
2021/06/19 05:16:11;;;;;;;8.07;5.60;;;17.60;79.10;;;;;;5061837;28;20480;-72
2021/06/19 05:18:37;;;;;;;8.85;6.38;;;17.50;79.40;;;;;;5062672;28;20075;-74
2021/06/19 05:21:03;;;;;;;8.23;5.70;;;17.30;79.60;;;;;;5046782;28;20033;-72
2021/06/19 05:23:29;;;;;;;8.23;5.70;;;17.40;80.20;;;;;;5061944;28;20025;-72
2021/06/19 05:25:54;;;;;;;8.27;4.97;;;17.50;79.90;;;;;;5061671;28;20047;-73
2021/06/19 05:28:20;;;;;;;8.48;5.95;;;17.60;79.40;;;;;;5067111;28;20061;-72
2021/06/19 05:30:46;;;;;;;8.48;5.63;;;17.60;79.10;;;;;;5061262;28;20183;-73
2021/06/19 05:33:12;;;;;;;9.48;6.15;;;17.50;79.60;;;;;;5059898;28;20040;-77
2021/06/19 05:35:37;;;;;;;9.75;5.85;;;17.40;79.80;;;;;;5066519;28;20570;-73
2021/06/19 05:38:03;;;;;;;8.02;5.43;;;17.50;79.50;;;;;;5066090;28;20032;-73
2021/06/19 05:40:29;;;;;;;9.00;6.45;;;17.60;79.10;;;;;;5063525;28;20028;-73
2021/06/19 05:42:55;;;;;;;9.32;6.57;;;17.60;79.30;;;;;;5065574;28;20255;-71
2021/06/19 05:45:20;;;;;;;10.95;8.00;;;17.60;79.10;;;;;;5065229;28;20464;-72
2021/06/19 05:47:46;;;;;;;10.43;8.07;;;17.60;78.90;;;;;;5066170;28;20072;-73
2021/06/19 05:50:12;;;;;;;11.27;8.00;;;17.50;80.00;;;;;;5066553;28;20081;-72
2021/06/19 05:52:38;;;;;;;10.85;8.18;;;17.50;79.80;;;;;;5065227;28;20151;-72
2021/06/19 05:55:05;;;;;;;10.25;8.23;;;17.40;80.30;;;;;;5065438;28;20036;-73
2021/06/19 05:57:31;;;;;;;9.95;8.60;;;17.50;80.20;;;;;;5065610;28;20029;-72
2021/06/19 05:59:56;;;;;;;12.93;10.70;;;17.60;79.90;;;;;;5043404;28;20044;-72
2021/06/19 06:02:22;;;;;;;13.60;9.70;;;17.70;79.70;;;;;;5064008;28;20105;-77
2021/06/19 06:04:48;;;;;;;12.35;10.90;;;17.70;79.60;;;;;;5066401;28;20048;-72
2021/06/19 06:07:13;;;;;;;13.95;11.02;;;17.80;79.40;;;;;;5054144;28;20341;-73
2021/06/19 06:09:39;;;;;;;12.95;10.50;;;17.80;79.50;;;;;;5064289;28;20040;-72
2021/06/19 06:12:07;;;;;;;13.52;12.10;;;17.80;79.70;;;;;;5045757;28;20029;-72
2021/06/19 06:14:33;;;;;;;13.32;11.65;;;17.70;79.60;;;;;;5065068;28;20444;-73
2021/06/19 06:16:58;;;;;;;13.05;10.25;;;17.60;80.00;;;;;;5042423;28;20146;-72
2021/06/19 06:19:24;;;;;;;14.02;10.68;;;17.70;80.00;;;;;;5063157;28;20368;-72
2021/06/19 06:21:50;;;;;;;13.07;10.45;;;17.70;79.80;;;;;;5062417;28;20162;-72
2021/06/19 06:24:16;;;;;;;12.57;10.70;;;17.80;80.20;;;;;;5061029;28;20039;-72
2021/06/19 06:26:42;;;;;;;11.27;9.35;;;17.70;79.70;;;;;;5059398;28;20037;-72
2021/06/19 06:29:08;;;;;;;12.07;9.73;;;17.70;80.10;;;;;;5046829;28;20044;-72
2021/06/19 06:31:34;;;;;;;11.02;8.88;;;17.70;79.70;;;;;;5044380;28;20529;-75
2021/06/19 06:34:00;;;;;;;11.55;9.63;;;17.70;79.90;;;;;;5042834;28;20485;-74
2021/06/19 06:36:26;;;;;;;11.10;9.07;;;17.60;79.60;;;;;;5065865;28;20028;-72
2021/06/19 06:38:51;;;;;;;13.15;10.73;;;17.60;80.10;;;;;;5065768;28;20419;-71
2021/06/19 06:41:17;;;;;;;13.35;10.95;;;17.50;80.30;;;;;;5062707;28;20020;-72
2021/06/19 06:43:43;;;;;;;13.80;12.35;;;17.60;80.40;;;;;;5057428;28;20032;-73
2021/06/19 06:46:09;;;;;;;14.50;12.65;;;17.60;80.30;;;;;;5064296;28;20127;-73
2021/06/19 06:48:34;;;;;;;14.35;11.85;;;17.50;81.00;;;;;;5064603;28;20696;-72
2021/06/19 06:51:00;;;;;;;14.60;13.02;;;17.50;81.00;;;;;;5063602;28;20451;-72
2021/06/19 06:53:25;;;;;;;14.40;12.48;;;17.40;81.10;;;;;;5055559;28;20093;-72
2021/06/19 06:55:51;;;;;;;12.98;11.57;;;17.50;80.80;;;;;;5041233;28;20040;-72
2021/06/19 06:58:17;;;;;;;13.63;11.90;;;17.50;81.00;;;;;;5044324;28;20517;-73
2021/06/19 07:00:42;;;;;;;12.15;10.40;;;17.50;80.90;;;;;;5055159;28;20037;-76
2021/06/19 07:03:08;;;;;;;10.52;8.10;;;17.60;80.70;;;;;;5061398;28;20086;-72
2021/06/19 07:05:34;;;;;;;9.60;7.13;;;17.60;80.50;;;;;;5064324;28;20040;-72
2021/06/19 07:07:59;;;;;;;9.05;7.18;;;17.60;80.70;;;;;;5063323;28;20082;-74
2021/06/19 07:10:25;;;;;;;7.82;5.75;;;17.80;80.60;;;;;;5060800;28;20615;-71
2021/06/19 07:12:51;;;;;;;8.63;5.53;;;17.90;80.90;;;;;;5060697;28;20120;-71
2021/06/19 07:15:18;;;;;;;5.97;4.07;;;18.10;79.60;;;;;;5045754;28;20095;-70
2021/06/19 07:17:44;;;;;;;7.28;4.90;;;18.10;80.40;;;;;;5061740;28;20036;-70
2021/06/19 07:20:11;;;;;;;9.27;4.93;;;18.20;78.30;;;;;;5040547;28;20364;-74
2021/06/19 07:22:38;;;;;;;7.55;5.05;;;18.20;79.50;;;;;;5045059;28;20463;-71
2021/06/19 07:25:07;;;;;;;7.65;5.18;;;18.30;79.50;;;;;;5062442;28;20098;-70
2021/06/19 07:27:33;;;;;;;7.70;4.32;;;18.30;78.70;;;;;;5046507;28;20025;-71
2021/06/19 07:29:59;;;;;;;9.27;4.75;;;18.40;78.50;;;;;;5064125;28;20041;-71
2021/06/19 07:32:24;;;;;;;7.88;5.45;;;18.50;77.80;;;;;;5061999;28;20039;-69
2021/06/19 07:34:50;;;;;;;6.78;4.55;;;18.30;78.30;;;;;;5062646;28;20408;-71
2021/06/19 07:37:16;;;;;;;8.20;5.50;;;18.30;78.90;;;;;;5064790;28;20025;-71
2021/06/19 07:39:42;;;;;;;8.38;5.32;;;18.30;78.50;;;;;;5064664;28;20029;-72
2021/06/19 07:42:07;;;;;;;7.05;4.53;;;18.20;79.40;;;;;;5060890;28;20043;-69
2021/06/19 07:44:33;;;;;;;8.00;5.55;;;18.40;79.80;;;;;;5062999;28;20043;-70
2021/06/19 07:46:59;;;;;;;8.27;5.25;;;18.30;78.10;;;;;;5063807;28;20032;-71
2021/06/19 07:49:26;;;;;;;9.55;6.60;;;18.30;78.50;;;;;;5044697;28;21324;-71
2021/06/19 07:51:53;;;;;;;11.73;7.82;;;18.30;78.40;;;;;;5061969;28;20112;-70
2021/06/19 07:54:19;;;;;;;9.88;7.05;;;18.40;78.20;;;;;;5061776;28;20048;-70
2021/06/19 07:56:46;;;;;;;11.00;7.75;;;18.40;78.50;;;;;;5063796;28;20044;-72
2021/06/19 07:59:12;;;;;;;10.93;8.35;;;18.10;79.00;;;;;;5062765;28;20048;-71
2021/06/19 08:01:38;;;;;;;11.32;8.93;;;18.10;79.50;;;;;;5060931;28;20081;-70
2021/06/19 08:04:04;;;;;;;10.55;7.07;;;18.00;80.20;;;;;;5047201;28;20040;-70
2021/06/19 08:06:30;;;;;;;11.60;8.20;;;18.00;81.30;;;;;;5060746;28;20041;-70
2021/06/19 08:08:55;;;;;;;10.18;8.45;;;18.10;81.20;;;;;;5064650;28;20555;-70
2021/06/19 08:11:22;;;;;;;10.10;7.70;;;18.20;80.20;;;;;;5043483;28;20041;-71
2021/06/19 08:13:49;;;;;;;10.93;8.85;;;18.40;80.00;;;;;;5061370;28;21026;-70
2021/06/19 08:16:17;;;;;;;9.55;7.70;;;18.40;78.70;;;;;;5063646;28;20037;-70
2021/06/19 08:18:47;;;;;;;9.02;6.68;;;18.40;79.20;;;;;;5055906;28;20430;-70
2021/06/19 08:21:14;;;;;;;10.25;7.93;;;18.40;79.10;;;;;;5045266;28;20376;-69
2021/06/19 08:23:40;;;;;;;8.77;6.55;;;18.30;78.90;;;;;;5063453;28;20036;-69
2021/06/19 08:26:06;;;;;;;8.52;6.45;;;18.40;78.90;;;;;;5063963;28;20048;-75
2021/06/19 08:28:33;;;;;;;8.40;6.07;;;18.60;78.90;;;;;;5062877;28;20076;-70
2021/06/19 08:30:59;;;;;;;8.15;6.13;;;18.60;78.10;;;;;;5063934;28;20523;-70
2021/06/19 08:33:25;;;;;;;9.73;7.78;;;18.60;78.20;;;;;;5059957;28;20063;-72
2021/06/19 08:35:51;;;;;;;10.23;8.43;;;18.60;78.10;;;;;;5064301;28;20029;-71
2021/06/19 08:38:16;;;;;;;10.90;8.85;;;18.50;78.00;;;;;;5059330;28;20045;-73
2021/06/19 08:40:42;;;;;;;11.25;8.45;;;18.50;78.20;;;;;;5049512;28;20025;-70
2021/06/19 08:43:08;;;;;;;11.23;9.13;;;18.60;78.80;;;;;;5067489;28;20068;-72
2021/06/19 08:45:34;;;;;;;10.23;8.73;;;18.50;77.90;;;;;;5040383;28;20040;-69
2021/06/19 08:48:04;;;;;;;12.15;9.02;;;18.40;78.50;;;;;;5053491;28;20077;-70
2021/06/19 08:50:31;;;;;;;12.32;10.02;;;18.50;78.40;;;;;;5051889;28;20110;-74
2021/06/19 08:52:59;;;;;;;12.68;11.00;;;18.40;78.60;;;;;;5060098;28;20128;-73
2021/06/19 08:55:25;;;;;;;11.70;9.43;;;18.30;78.70;;;;;;5050707;28;20039;-72
2021/06/19 08:57:51;;;;;;;11.73;9.95;;;18.30;78.40;;;;;;5053203;28;20451;-74
2021/06/19 09:00:17;;;;;;;10.35;9.25;;;18.30;78.20;;;;;;5050977;28;20033;-75
2021/06/19 09:02:46;;;;;;;12.18;9.00;;;18.60;78.30;;;;;;5038520;28;20052;-70
2021/06/19 09:05:15;;;;;;;13.10;8.50;;;19.00;77.50;;;;;;5040354;28;20047;-71
2021/06/19 09:07:44;;;;;;;10.38;7.95;;;19.40;75.80;;;;;;5044098;28;20313;-75
2021/06/19 09:10:26;;;;;;;10.82;8.18;;;19.80;73.80;;;;;;5043005;28;20040;-73
2021/06/19 09:13:01;;;;;;;11.13;8.38;;;19.90;73.30;;;;;;5043189;28;20084;-72
2021/06/19 09:15:28;;;;;;;10.35;9.07;;;20.00;73.40;;;;;;5040536;28;20205;-74
2021/06/19 09:18:14;;;;;;;11.35;9.15;;;20.10;71.40;;;;;;5044381;28;20033;-74
2021/06/19 09:21:12;;;;;;;11.38;9.63;;;20.30;71.40;;;;;;5024296;28;20779;-74
2021/06/19 09:23:43;;;;;;;11.20;9.70;;;20.50;70.90;;;;;;4996338;28;20122;-74
2021/06/19 09:26:26;;;;;;;12.75;11.13;;;20.70;70.00;;;;;;5040319;28;20085;-75
2021/06/19 09:28:57;;;;;;;12.68;10.77;;;20.60;69.70;;;;;;5023302;28;20128;-73
2021/06/19 09:31:33;;;;;;;11.57;9.85;;;20.40;70.00;;;;;;5040286;28;20411;-74
2021/06/19 09:34:04;;;;;;;11.55;9.48;;;20.20;70.10;;;;;;5043318;28;20060;-74
2021/06/19 09:36:44;;;;;;;11.45;8.82;;;20.10;71.80;;;;;;5040217;28;20485;-72
2021/06/19 09:39:12;;;;;;;11.07;8.45;;;19.90;72.20;;;;;;5043634;28;20574;-73
2021/06/19 09:41:41;;;;;;;12.40;10.10;;;19.80;71.80;;;;;;5038463;28;20051;-71
2021/06/19 09:44:07;;;;;;;12.15;10.10;;;19.60;72.30;;;;;;5020705;28;20446;-75
2021/06/19 09:46:32;;;;;;;12.98;10.23;;;19.70;72.90;;;;;;5039497;28;20084;-73
2021/06/19 09:49:13;;;;;;;13.32;9.98;;;19.80;72.30;;;;;;5043799;28;21629;-72
2021/06/19 09:51:51;;;;;;;11.35;10.05;;;19.90;72.10;;;;;;5039613;28;20506;-72
2021/06/19 09:54:18;;;;;;;11.52;9.95;;;19.90;71.10;;;;;;5040332;28;20041;-75
2021/06/19 09:56:51;;;;;;;12.35;11.05;;;19.80;72.70;;;;;;5042755;28;20037;-69
2021/06/19 09:59:26;;;;;;;10.18;8.07;;;19.80;71.30;;;;;;5033632;28;20983;-75
2021/06/19 10:01:54;;;;;;;10.98;9.30;;;19.90;73.20;;;;;;5047623;28;20040;-74
2021/06/19 10:04:21;;;;;;;13.75;10.13;;;20.10;72.00;;;;;;5046461;28;20040;-70
2021/06/19 10:06:47;;;;;;;12.25;9.55;;;20.30;71.20;;;;;;5047645;28;20040;-70
2021/06/19 10:09:16;;;;;;;11.95;9.80;;;20.30;70.20;;;;;;5043353;28;20052;-70
2021/06/19 10:11:44;;;;;;;11.40;9.88;;;20.40;70.70;;;;;;5048999;28;20099;-73
2021/06/19 10:14:16;;;;;;;10.27;7.82;;;20.40;70.60;;;;;;5045747;28;20048;-70
2021/06/19 10:16:43;;;;;;;10.95;8.48;;;20.40;70.70;;;;;;5030221;28;20757;-70
2021/06/19 10:19:09;;;;;;;8.98;7.13;;;20.30;70.50;;;;;;5050460;28;20044;-70
2021/06/19 10:21:35;;;;;;;11.27;9.65;;;20.30;70.70;;;;;;5049259;28;20083;-75
2021/06/19 10:24:02;;;;;;;10.57;8.93;;;20.30;70.60;;;;;;5032096;28;20581;-70
2021/06/19 10:26:29;;;;;;;11.95;10.05;;;20.30;71.20;;;;;;5049758;28;20051;-71
2021/06/19 10:28:57;;;;;;;10.27;8.80;;;20.10;71.10;;;;;;5047977;28;20045;-73
2021/06/19 10:31:24;;;;;;;9.27;7.70;;;20.20;72.00;;;;;;5032627;28;20856;-74
2021/06/19 10:33:50;;;;;;;10.80;9.40;;;20.50;71.10;;;;;;5051799;28;20073;-71
2021/06/19 10:36:16;;;;;;;8.50;6.43;;;20.50;69.40;;;;;;5048045;28;20032;-71
2021/06/19 10:38:55;;;;;;;10.27;8.88;;;20.70;70.40;;;;;;5049857;28;20040;-70
2021/06/19 10:41:43;;;;;;;10.82;9.15;;;20.80;68.90;;;;;;5052777;28;21371;-69
2021/06/19 10:44:08;;;;;;;10.20;7.75;;;20.70;69.40;;;;;;5056076;28;20044;-74
2021/06/19 10:46:37;;;;;;;8.38;6.97;;;20.90;69.60;;;;;;5062880;28;20040;-70
2021/06/19 10:49:19;;;;;;;10.55;8.27;;;21.20;68.50;;;;;;5047042;28;20182;-70
2021/06/19 10:51:45;;;;;;;9.63;8.38;;;21.40;66.60;;;;;;5061261;28;20044;-70
2021/06/19 10:54:23;;;;;;;9.57;7.55;;;21.40;65.00;;;;;;5063397;28;20033;-69
2021/06/19 10:56:53;;;;;;;8.50;7.00;;;21.60;65.30;;;;;;5059255;28;20127;-71
2021/06/19 10:59:30;;;;;;;9.00;6.93;;;21.50;66.10;;;;;;5058902;28;20638;-72
2021/06/19 11:02:00;;;;;;;9.48;7.53;;;21.40;66.00;;;;;;5061410;28;20040;-74
2021/06/19 11:04:36;;;;;;;11.90;7.95;;;21.50;66.30;;;;;;5043738;28;20119;-72
2021/06/19 11:07:02;;;;;;;9.18;7.95;;;21.40;67.30;;;;;;5061731;28;20056;-71
2021/06/19 11:09:38;;;;;;;8.75;7.38;;;21.10;66.90;;;;;;5043107;28;20033;-72
2021/06/19 11:12:08;;;;;;;9.02;7.13;;;20.90;68.40;;;;;;5062255;28;20115;-71
2021/06/19 11:14:43;;;;;;;8.68;6.55;;;21.00;68.50;;;;;;5063552;28;20048;-73
2021/06/19 11:17:21;;;;;;;10.50;7.80;;;21.00;68.00;;;;;;5060651;28;20052;-73
2021/06/19 11:19:55;;;;;;;9.80;7.30;;;20.80;68.10;;;;;;5063369;28;20129;-78
2021/06/19 11:22:26;;;;;;;11.63;7.75;;;20.70;68.50;;;;;;5062557;28;20060;-71
2021/06/19 11:25:12;;;;;;;9.43;6.95;;;20.60;69.40;;;;;;5064079;28;20032;-72
2021/06/19 11:27:51;;;;;;;9.07;7.05;;;20.60;69.40;;;;;;5064029;28;20519;-72
2021/06/19 11:30:35;;;;;;;8.68;6.68;;;20.60;69.00;;;;;;5059456;28;20120;-73
2021/06/19 11:33:23;;;;;;;8.98;6.30;;;20.60;69.10;;;;;;5059371;28;20032;-73
2021/06/19 11:36:12;;;;;;;9.02;6.05;;;20.60;69.70;;;;;;5059526;28;20028;-79
2021/06/19 11:38:46;;;;;;;7.22;5.10;;;20.60;70.10;;;;;;5050104;28;20373;-71
2021/06/19 11:41:14;;;;;;;7.85;5.00;;;20.60;69.10;;;;;;5054129;28;20487;-74
2021/06/19 11:43:41;;;;;;;8.77;5.68;;;20.60;69.90;;;;;;5065158;28;20462;-72
2021/06/19 11:46:06;;;;;;;7.45;5.20;;;20.60;68.60;;;;;;5059458;28;20028;-72
2021/06/19 11:48:47;;;;;;;6.68;4.60;;;20.60;68.90;;;;;;5062708;28;20036;-75
2021/06/19 11:51:12;;;;;;;8.35;5.05;;;20.60;69.40;;;;;;5055563;28;20094;-73
2021/06/19 11:53:38;;;;;;;6.97;4.28;;;20.70;69.10;;;;;;5061363;28;20483;-72
2021/06/19 11:56:07;;;;;;;6.88;5.10;;;20.80;68.90;;;;;;5062955;28;20468;-73
2021/06/19 11:58:46;;;;;;;8.23;4.75;;;20.90;67.90;;;;;;5043086;28;20040;-72
2021/06/19 12:01:28;;;;;;;7.97;4.15;;;21.00;68.70;;;;;;5064836;28;20113;-73
2021/06/19 12:03:59;;;;;;;7.70;4.95;;;21.10;69.30;;;;;;5061581;28;20069;-73
2021/06/19 12:06:29;;;;;;;7.38;5.15;;;21.50;69.30;;;;;;5046570;28;20455;-72
2021/06/19 12:08:54;;;;;;;7.70;4.30;;;21.70;67.00;;;;;;5065691;28;20044;-72
2021/06/19 12:11:29;;;;;;;7.10;4.10;;;21.90;66.80;;;;;;5059128;28;20055;-78
2021/06/19 12:13:56;;;;;;;6.47;4.15;;;22.10;66.00;;;;;;5039823;28;20455;-74
2021/06/19 12:16:31;;;;;;;6.30;3.75;;;22.10;64.80;;;;;;5046260;28;20116;-73
2021/06/19 12:18:58;;;;;;;7.07;4.60;;;22.10;64.10;;;;;;5047937;28;20037;-72
2021/06/19 12:21:31;;;;;;;7.38;4.93;;;21.90;64.60;;;;;;5049250;28;20029;-72
2021/06/19 12:23:57;;;;;;;6.03;3.20;;;21.90;66.10;;;;;;5047438;28;20481;-72
2021/06/19 12:26:23;;;;;;;7.20;4.13;;;21.90;67.30;;;;;;5047358;28;20124;-72
2021/06/19 12:28:49;;;;;;;6.10;3.67;;;21.80;66.10;;;;;;5048042;28;20049;-72
2021/06/19 12:31:21;;;;;;;7.47;4.70;;;21.70;66.50;;;;;;5045195;28;20056;-74
2021/06/19 12:33:58;;;;;;;7.30;4.47;;;21.80;65.40;;;;;;5040534;28;20516;-72
2021/06/19 12:36:25;;;;;;;5.35;3.70;;;21.80;65.50;;;;;;5040025;28;20537;-73
2021/06/19 12:38:51;;;;;;;7.35;5.25;;;21.90;66.00;;;;;;5041025;28;20074;-72
2021/06/19 12:41:18;;;;;;;6.80;4.57;;;21.90;66.00;;;;;;5044425;28;20033;-75